createdAt,value
2023-03-22T00:00:09.788Z,76.90
2023-03-22T00:01:09.768Z,76.94
2023-03-22T00:02:09.751Z,77.42
2023-03-22T00:03:09.744Z,77.11
2023-03-22T00:04:09.810Z,77.25
2023-03-22T00:05:14.750Z,77.35
2023-03-22T00:06:09.706Z,77.45
2023-03-22T00:07:09.694Z,77.25
2023-03-22T00:08:09.688Z,77.04
2023-03-22T00:09:09.672Z,77.15
2023-03-22T00:10:09.710Z,77.35
2023-03-22T00:11:09.656Z,77.45
2023-03-22T00:12:09.667Z,77.66
2023-03-22T00:13:09.633Z,77.35
2023-03-22T00:14:09.619Z,77.04
2023-03-22T00:15:09.627Z,77.31
2023-03-22T00:16:14.712Z,77.25
2023-03-22T00:17:09.584Z,77.56
2023-03-22T00:18:09.573Z,77.62
2023-03-22T00:19:09.562Z,76.74
2023-03-22T00:20:09.561Z,77.01
2023-03-22T00:21:09.542Z,77.11
2023-03-22T00:22:09.553Z,76.90
2023-03-22T00:23:09.520Z,76.90
2023-03-22T00:24:09.511Z,76.90
2023-03-22T00:25:09.506Z,77.01
2023-03-22T00:26:09.485Z,76.94
2023-03-22T00:27:14.523Z,76.90
2023-03-22T00:28:09.468Z,77.04
2023-03-22T00:29:09.463Z,76.94
2023-03-22T00:30:09.452Z,77.01
2023-03-22T00:31:09.505Z,76.94
2023-03-22T00:32:09.418Z,77.04
2023-03-22T00:33:09.418Z,77.15
2023-03-22T00:34:09.404Z,77.25
2023-03-22T00:35:09.423Z,77.45
2023-03-22T00:36:09.374Z,76.94
2023-03-22T00:37:09.368Z,77.35
2023-03-22T00:38:14.502Z,77.22
2023-03-22T00:39:09.344Z,76.84
2023-03-22T00:40:09.350Z,77.04
2023-03-22T00:41:09.336Z,76.90
2023-03-22T00:42:09.312Z,77.22
2023-03-22T00:43:09.322Z,77.11
2023-03-22T00:44:09.300Z,76.90
2023-03-22T00:45:09.289Z,77.11
2023-03-22T00:46:09.405Z,77.22
2023-03-22T00:47:09.298Z,76.70
2023-03-22T00:48:09.260Z,76.70
2023-03-22T00:49:14.252Z,77.01
2023-03-22T00:50:09.234Z,76.70
2023-03-22T00:51:09.221Z,77.11
2023-03-22T00:52:09.197Z,76.90
2023-03-22T00:53:09.196Z,77.31
2023-03-22T00:54:09.181Z,76.90
2023-03-22T00:55:09.188Z,76.70
2023-03-22T00:56:09.161Z,76.90
2023-03-22T00:57:09.147Z,76.90
2023-03-22T00:58:09.128Z,76.90
2023-03-22T00:59:09.141Z,77.11
2023-03-22T01:00:14.146Z,76.70
2023-03-22T01:01:09.198Z,77.01
2023-03-22T01:02:09.085Z,77.01
2023-03-22T01:03:09.106Z,77.22
2023-03-22T01:04:09.061Z,77.22
2023-03-22T01:05:09.081Z,77.62
2023-03-22T01:06:09.038Z,77.66
2023-03-22T01:07:09.028Z,77.66
2023-03-22T01:08:09.017Z,77.56
2023-03-22T01:09:09.004Z,77.56
2023-03-22T01:10:09.003Z,77.66
2023-03-22T01:11:14.038Z,77.76
2023-03-22T01:12:08.971Z,77.66
2023-03-22T01:13:08.971Z,77.86
2023-03-22T01:14:08.949Z,77.76
2023-03-22T01:15:08.970Z,77.86
2023-03-22T01:16:08.978Z,77.86
2023-03-22T01:17:08.932Z,77.66
2023-03-22T01:18:08.923Z,77.66
2023-03-22T01:19:08.894Z,77.97
2023-03-22T01:20:08.889Z,77.97
2023-03-22T01:21:08.865Z,78.07
2023-03-22T01:22:13.875Z,78.17
2023-03-22T01:23:08.863Z,78.17
2023-03-22T01:24:08.832Z,77.97
2023-03-22T01:25:08.837Z,77.76
2023-03-22T01:26:08.810Z,77.86
2023-03-22T01:27:08.799Z,78.31
2023-03-22T01:28:08.793Z,78.17
2023-03-22T01:29:08.789Z,78.20
2023-03-22T01:30:08.764Z,78.17
2023-03-22T01:31:08.877Z,78.17
2023-03-22T01:32:08.746Z,78.27
2023-03-22T01:33:13.752Z,77.86
2023-03-22T01:34:08.720Z,77.86
2023-03-22T01:35:08.716Z,77.76
2023-03-22T01:36:08.713Z,77.25
2023-03-22T01:37:08.686Z,76.74
2023-03-22T01:38:08.683Z,77.01
2023-03-22T01:39:08.664Z,77.52
2023-03-22T01:40:08.664Z,76.70
2023-03-22T01:41:08.690Z,77.01
2023-03-22T01:42:08.638Z,76.90
2023-03-22T01:43:08.625Z,76.81
2023-03-22T01:44:13.630Z,76.94
2023-03-22T01:45:08.609Z,77.22
2023-03-22T01:46:08.622Z,77.22
2023-03-22T01:47:08.615Z,76.90
2023-03-22T01:48:08.623Z,77.35
2023-03-22T01:49:08.654Z,76.90
2023-03-22T01:50:08.556Z,77.01
2023-03-22T01:51:08.545Z,77.11
2023-03-22T01:52:08.526Z,77.01
2023-03-22T01:53:08.569Z,77.11
2023-03-22T01:54:08.499Z,76.90
2023-03-22T01:55:13.512Z,77.22
2023-03-22T01:56:08.489Z,76.90
2023-03-22T01:57:08.468Z,77.25
2023-03-22T01:58:08.464Z,76.90
2023-03-22T01:59:08.480Z,77.15
2023-03-22T02:00:08.435Z,77.15
2023-03-22T02:01:08.513Z,77.22
2023-03-22T02:02:08.413Z,77.25
2023-03-22T02:03:08.426Z,77.31
2023-03-22T02:04:08.391Z,77.15
2023-03-22T02:05:08.409Z,77.25
2023-03-22T02:06:13.401Z,77.42
2023-03-22T02:07:08.357Z,77.52
2023-03-22T02:08:08.345Z,77.42
2023-03-22T02:09:08.350Z,77.11
2023-03-22T02:10:08.326Z,77.01
2023-03-22T02:11:08.357Z,77.22
2023-03-22T02:12:08.302Z,76.94
2023-03-22T02:13:08.291Z,77.35
2023-03-22T02:14:08.279Z,77.35
2023-03-22T02:15:08.268Z,77.56
2023-03-22T02:16:08.319Z,77.25
2023-03-22T02:17:13.317Z,77.45
2023-03-22T02:18:08.232Z,77.25
2023-03-22T02:19:08.260Z,77.15
2023-03-22T02:20:08.213Z,77.45
2023-03-22T02:21:08.208Z,77.45
2023-03-22T02:22:08.186Z,77.56
2023-03-22T02:23:08.202Z,77.45
2023-03-22T02:24:08.165Z,77.45
2023-03-22T02:25:08.162Z,77.25
2023-03-22T02:26:08.151Z,77.35
2023-03-22T02:27:08.134Z,77.25
2023-03-22T02:28:13.143Z,77.11
2023-03-22T02:29:08.153Z,77.25
2023-03-22T02:30:08.100Z,77.25
2023-03-22T02:31:08.147Z,77.04
2023-03-22T02:32:08.083Z,77.35
2023-03-22T02:33:08.066Z,77.25
2023-03-22T02:34:08.052Z,77.25
2023-03-22T02:35:08.085Z,77.22
2023-03-22T02:36:08.053Z,77.04
2023-03-22T02:37:08.023Z,77.04
2023-03-22T02:38:08.009Z,76.90
2023-03-22T02:39:13.024Z,77.01
2023-03-22T02:40:08.006Z,77.31
2023-03-22T02:41:08.006Z,77.35
2023-03-22T02:42:07.965Z,76.94
2023-03-22T02:43:07.954Z,77.01
2023-03-22T02:44:07.964Z,77.04
2023-03-22T02:45:07.936Z,77.04
2023-03-22T02:46:07.980Z,77.04
2023-03-22T02:47:07.929Z,76.84
2023-03-22T02:48:08.102Z,77.15
2023-03-22T02:49:07.912Z,77.04
2023-03-22T02:50:12.920Z,77.11
2023-03-22T02:51:07.880Z,77.04
2023-03-22T02:52:07.851Z,77.01
2023-03-22T02:53:07.855Z,77.22
2023-03-22T02:54:07.828Z,76.90
2023-03-22T02:55:07.818Z,76.90
2023-03-22T02:56:07.818Z,77.04
2023-03-22T02:57:07.835Z,76.94
2023-03-22T02:58:07.782Z,76.74
2023-03-22T02:59:07.798Z,77.22
2023-03-22T03:00:07.761Z,76.90
2023-03-22T03:01:12.886Z,76.81
2023-03-22T03:02:07.853Z,76.90
2023-03-22T03:03:07.728Z,77.04
2023-03-22T03:04:07.721Z,77.11
2023-03-22T03:05:07.725Z,77.04
2023-03-22T03:06:07.721Z,77.01
2023-03-22T03:07:07.698Z,76.81
2023-03-22T03:08:07.668Z,76.90
2023-03-22T03:09:07.655Z,76.81
2023-03-22T03:10:07.646Z,76.81
2023-03-22T03:11:07.661Z,77.11
2023-03-22T03:12:12.661Z,76.60
2023-03-22T03:13:07.616Z,77.01
2023-03-22T03:14:07.604Z,77.01
2023-03-22T03:15:07.589Z,77.11
2023-03-22T03:16:07.681Z,76.70
2023-03-22T03:17:07.624Z,76.70
2023-03-22T03:18:07.553Z,76.40
2023-03-22T03:19:07.550Z,77.22
2023-03-22T03:20:07.531Z,76.60
2023-03-22T03:21:07.522Z,76.70
2023-03-22T03:22:07.542Z,77.11
2023-03-22T03:23:12.558Z,76.70
2023-03-22T03:24:07.487Z,76.50
2023-03-22T03:25:07.480Z,76.09
2023-03-22T03:26:13.818Z,75.89
2023-03-22T03:27:07.466Z,76.19
2023-03-22T03:28:07.445Z,76.09
2023-03-22T03:29:07.447Z,76.40
2023-03-22T03:30:07.427Z,76.19
2023-03-22T03:31:07.408Z,76.29
2023-03-22T03:32:07.424Z,76.29
2023-03-22T03:33:07.388Z,76.50
2023-03-22T03:34:12.404Z,76.70
2023-03-22T03:35:07.401Z,76.40
2023-03-22T03:36:07.359Z,76.23
2023-03-22T03:37:07.359Z,76.50
2023-03-22T03:38:07.357Z,76.90
2023-03-22T03:39:07.321Z,77.11
2023-03-22T03:40:07.307Z,76.50
2023-03-22T03:41:07.336Z,76.03
2023-03-22T03:42:07.304Z,75.89
2023-03-22T03:43:07.302Z,76.19
2023-03-22T03:44:07.267Z,76.53
2023-03-22T03:45:12.272Z,76.64
2023-03-22T03:46:07.270Z,76.74
2023-03-22T03:47:07.251Z,77.25
2023-03-22T03:48:07.426Z,77.04
2023-03-22T03:49:07.207Z,77.15
2023-03-22T03:50:07.193Z,77.15
2023-03-22T03:51:07.183Z,77.04
2023-03-22T03:52:07.188Z,76.23
2023-03-22T03:53:07.178Z,76.03
2023-03-22T03:54:07.172Z,77.19
2023-03-22T03:55:07.148Z,76.88
2023-03-22T03:56:12.169Z,77.29
2023-03-22T03:57:07.126Z,77.08
2023-03-22T03:58:07.106Z,77.19
2023-03-22T03:59:07.113Z,77.19
2023-03-22T04:00:07.087Z,77.19
2023-03-22T04:01:07.094Z,77.29
2023-03-22T04:02:07.122Z,76.88
2023-03-22T04:03:07.052Z,76.98
2023-03-22T04:04:07.118Z,76.98
2023-03-22T04:05:07.042Z,76.98
2023-03-22T04:06:07.017Z,76.98
2023-03-22T04:07:12.039Z,77.08
2023-03-22T04:08:06.997Z,77.29
2023-03-22T04:09:06.982Z,76.98
2023-03-22T04:10:07.002Z,77.19
2023-03-22T04:11:07.028Z,77.19
2023-03-22T04:12:06.959Z,77.32
2023-03-22T04:13:06.945Z,77.83
2023-03-22T04:14:06.934Z,77.80
2023-03-22T04:15:06.938Z,77.39
2023-03-22T04:16:06.908Z,77.90
2023-03-22T04:17:06.956Z,77.59
2023-03-22T04:18:11.923Z,77.94
2023-03-22T04:19:06.874Z,78.31
2023-03-22T04:20:06.872Z,78.24
2023-03-22T04:21:06.852Z,77.83
2023-03-22T04:22:06.851Z,77.83
2023-03-22T04:23:06.899Z,78.34
2023-03-22T04:24:06.832Z,77.73
2023-03-22T04:25:06.812Z,78.14
2023-03-22T04:26:06.817Z,78.24
2023-03-22T04:27:06.818Z,78.45
2023-03-22T04:28:06.775Z,78.55
2023-03-22T04:29:11.787Z,78.89
2023-03-22T04:30:06.770Z,78.55
2023-03-22T04:31:06.781Z,78.45
2023-03-22T04:32:06.752Z,79.10
2023-03-22T04:33:06.716Z,78.49
2023-03-22T04:34:06.719Z,78.59
2023-03-22T04:35:06.708Z,79.20
2023-03-22T04:36:06.704Z,79.00
2023-03-22T04:37:06.680Z,78.89
2023-03-22T04:38:06.661Z,79.30
2023-03-22T04:39:06.650Z,78.79
2023-03-22T04:40:11.660Z,78.59
2023-03-22T04:41:06.640Z,78.69
2023-03-22T04:42:06.661Z,78.79
2023-03-22T04:43:06.618Z,78.69
2023-03-22T04:44:06.609Z,78.69
2023-03-22T04:45:06.661Z,79.00
2023-03-22T04:46:06.591Z,78.89
2023-03-22T04:47:06.572Z,78.93
2023-03-22T04:48:06.613Z,78.79
2023-03-22T04:49:06.542Z,79.13
2023-03-22T04:50:06.566Z,79.00
2023-03-22T04:51:11.539Z,79.03
2023-03-22T04:52:06.533Z,78.83
2023-03-22T04:53:06.498Z,79.54
2023-03-22T04:54:06.501Z,79.24
2023-03-22T04:55:06.472Z,79.24
2023-03-22T04:56:06.460Z,79.64
2023-03-22T04:57:06.455Z,79.24
2023-03-22T04:58:06.475Z,79.44
2023-03-22T04:59:06.432Z,79.54
2023-03-22T05:00:06.442Z,79.44
2023-03-22T05:01:06.409Z,79.96
2023-03-22T05:02:11.415Z,79.24
2023-03-22T05:03:06.496Z,79.34
2023-03-22T05:04:06.379Z,79.58
2023-03-22T05:05:06.361Z,79.89
2023-03-22T05:06:06.378Z,79.79
2023-03-22T05:07:06.344Z,80.09
2023-03-22T05:08:06.335Z,79.79
2023-03-22T05:09:06.315Z,79.48
2023-03-22T05:10:06.321Z,80.40
2023-03-22T05:11:06.293Z,79.17
2023-03-22T05:12:06.308Z,80.19
2023-03-22T05:13:11.320Z,79.58
2023-03-22T05:14:06.337Z,80.30
2023-03-22T05:15:06.244Z,79.48
2023-03-22T05:16:06.309Z,79.48
2023-03-22T05:17:06.225Z,79.99
2023-03-22T05:18:06.258Z,79.99
2023-03-22T05:19:06.203Z,79.58
2023-03-22T05:20:06.203Z,80.30
2023-03-22T05:21:06.192Z,79.48
2023-03-22T05:22:06.167Z,80.51
2023-03-22T05:23:06.165Z,80.23
2023-03-22T05:24:11.197Z,80.71
2023-03-22T05:25:06.133Z,80.95
2023-03-22T05:26:06.125Z,80.71
2023-03-22T05:27:06.120Z,80.71
2023-03-22T05:28:06.123Z,80.95
2023-03-22T05:29:06.117Z,81.05
2023-03-22T05:30:06.098Z,80.91
2023-03-22T05:31:06.093Z,80.74
2023-03-22T05:32:06.057Z,81.15
2023-03-22T05:33:06.066Z,81.05
2023-03-22T05:34:06.042Z,81.15
2023-03-22T05:35:11.046Z,80.95
2023-03-22T05:36:06.039Z,81.15
2023-03-22T05:37:06.004Z,80.85
2023-03-22T05:38:06.004Z,80.85
2023-03-22T05:39:05.990Z,80.85
2023-03-22T05:40:05.971Z,80.85
2023-03-22T05:41:05.959Z,81.05
2023-03-22T05:42:05.979Z,80.85
2023-03-22T05:43:05.954Z,80.85
2023-03-22T05:44:05.936Z,80.95
2023-03-22T05:45:05.940Z,80.95
2023-03-22T05:46:10.937Z,80.95
2023-03-22T05:47:05.985Z,80.85
2023-03-22T05:48:05.971Z,80.95
2023-03-22T05:49:05.874Z,81.15
2023-03-22T05:50:05.872Z,81.05
2023-03-22T05:51:05.855Z,81.46
2023-03-22T05:52:05.851Z,80.74
2023-03-22T05:53:05.850Z,81.15
2023-03-22T05:54:05.838Z,81.46
2023-03-22T05:55:05.807Z,81.36
2023-03-22T05:56:05.798Z,81.57
2023-03-22T05:57:10.805Z,81.77
2023-03-22T05:58:05.784Z,80.64
2023-03-22T05:59:05.762Z,80.85
2023-03-22T06:00:05.782Z,80.64
2023-03-22T06:01:05.765Z,80.85
2023-03-22T06:02:05.789Z,80.64
2023-03-22T06:03:05.775Z,80.95
2023-03-22T06:04:05.715Z,80.95
2023-03-22T06:05:05.696Z,81.05
2023-03-22T06:06:05.711Z,80.85
2023-03-22T06:07:05.674Z,80.85
2023-03-22T06:08:10.689Z,80.85
2023-03-22T06:09:16.525Z,80.81
2023-03-22T06:10:05.652Z,81.01
2023-03-22T06:11:05.638Z,80.81
2023-03-22T06:12:05.638Z,80.81
2023-03-22T06:13:05.723Z,81.05
2023-03-22T06:14:05.598Z,80.81
2023-03-22T06:15:05.586Z,81.01
2023-03-22T06:16:05.655Z,80.91
2023-03-22T06:17:05.613Z,80.71
2023-03-22T06:18:05.589Z,80.71
2023-03-22T06:19:10.568Z,80.71
2023-03-22T06:20:05.532Z,80.54
2023-03-22T06:21:05.535Z,81.05
2023-03-22T06:22:05.506Z,80.44
2023-03-22T06:23:05.496Z,80.64
2023-03-22T06:24:05.520Z,80.71
2023-03-22T06:25:05.481Z,80.19
2023-03-22T06:26:05.460Z,79.68
2023-03-22T06:27:05.474Z,79.79
2023-03-22T06:28:08.546Z,80.30
2023-03-22T06:29:05.448Z,79.68
2023-03-22T06:30:10.478Z,79.48
2023-03-22T06:31:05.480Z,79.99
2023-03-22T06:32:05.406Z,79.48
2023-03-22T06:33:05.432Z,79.89
2023-03-22T06:34:05.378Z,80.09
2023-03-22T06:35:05.377Z,79.48
2023-03-22T06:36:05.400Z,80.40
2023-03-22T06:37:05.335Z,79.48
2023-03-22T06:38:05.321Z,79.68
2023-03-22T06:39:05.315Z,80.40
2023-03-22T06:40:05.301Z,78.97
2023-03-22T06:41:10.321Z,80.09
2023-03-22T06:42:05.286Z,79.99
2023-03-22T06:43:07.225Z,79.85
2023-03-22T06:44:05.261Z,80.16
2023-03-22T06:45:05.265Z,79.85
2023-03-22T06:46:05.271Z,79.54
2023-03-22T06:47:05.239Z,79.54
2023-03-22T06:48:05.248Z,79.50
2023-03-22T06:49:05.241Z,79.50
2023-03-22T06:50:05.186Z,79.41
2023-03-22T06:51:05.185Z,78.89
2023-03-22T06:52:10.186Z,79.30
2023-03-22T06:53:05.179Z,78.89
2023-03-22T06:54:05.204Z,78.79
2023-03-22T06:55:05.133Z,78.75
2023-03-22T06:56:05.126Z,78.96
2023-03-22T06:57:05.111Z,78.24
2023-03-22T06:58:05.101Z,78.04
2023-03-22T06:59:05.103Z,77.94
2023-03-22T07:00:05.298Z,78.04
2023-03-22T07:01:05.077Z,77.83
2023-03-22T07:02:05.047Z,77.83
2023-03-22T07:03:10.065Z,77.29
2023-03-22T07:04:05.159Z,76.98
2023-03-22T07:05:05.047Z,77.08
2023-03-22T07:06:05.024Z,76.98
2023-03-22T07:07:05.001Z,77.25
2023-03-22T07:08:04.990Z,77.04
2023-03-22T07:09:04.985Z,76.03
2023-03-22T07:10:05.004Z,76.23
2023-03-22T07:11:04.976Z,76.29
2023-03-22T07:12:04.963Z,76.50
2023-03-22T07:13:04.941Z,75.89
2023-03-22T07:14:09.957Z,76.09
2023-03-22T07:15:04.909Z,75.99
2023-03-22T07:16:04.928Z,75.58
2023-03-22T07:17:04.892Z,75.44
2023-03-22T07:18:04.882Z,75.04
2023-03-22T07:19:04.907Z,75.04
2023-03-22T07:20:04.851Z,75.13
2023-03-22T07:21:04.874Z,75.13
2023-03-22T07:22:04.877Z,74.52
2023-03-22T07:23:04.815Z,74.42
2023-03-22T07:24:04.832Z,74.69
2023-03-22T07:25:09.886Z,74.73
2023-03-22T07:26:04.820Z,74.29
2023-03-22T07:27:04.770Z,74.38
2023-03-22T07:28:04.759Z,74.49
2023-03-22T07:29:04.758Z,73.98
2023-03-22T07:30:04.735Z,74.18
2023-03-22T07:31:04.760Z,73.77
2023-03-22T07:32:04.759Z,73.57
2023-03-22T07:33:04.716Z,74.05
2023-03-22T07:34:04.692Z,74.05
2023-03-22T07:35:04.697Z,73.54
2023-03-22T07:36:09.723Z,73.43
2023-03-22T07:37:04.665Z,72.92
2023-03-22T07:38:04.666Z,72.41
2023-03-22T07:39:04.650Z,72.72
2023-03-22T07:40:04.697Z,73.43
2023-03-22T07:41:04.627Z,73.33
2023-03-22T07:42:04.636Z,72.58
2023-03-22T07:43:04.597Z,72.58
2023-03-22T07:44:16.997Z,73.50
2023-03-22T07:45:04.650Z,72.48
2023-03-22T07:46:04.591Z,72.79
2023-03-22T07:47:09.863Z,72.48
2023-03-22T07:48:04.558Z,73.19
2023-03-22T07:49:04.549Z,72.75
2023-03-22T07:50:04.887Z,72.75
2023-03-22T07:51:04.511Z,72.55
2023-03-22T07:52:04.528Z,71.84
2023-03-22T07:53:04.492Z,72.21
2023-03-22T07:54:07.157Z,72.04
2023-03-22T07:55:04.484Z,72.01
2023-03-22T07:56:04.550Z,71.39
2023-03-22T07:57:04.467Z,71.94
2023-03-22T07:58:09.454Z,72.11
2023-03-22T07:59:04.459Z,71.43
2023-03-22T08:00:04.498Z,70.78
2023-03-22T08:01:04.419Z,70.89
2023-03-22T08:02:04.438Z,70.48
2023-03-22T08:03:04.437Z,70.21
2023-03-22T08:04:04.391Z,68.38
2023-03-22T08:05:04.366Z,66.80
2023-03-22T08:06:04.383Z,65.04
2023-03-22T08:07:04.330Z,64.67
2023-03-22T08:08:04.341Z,62.99
2023-03-22T08:09:09.333Z,61.65
2023-03-22T08:10:04.608Z,61.65
2023-03-22T08:11:04.285Z,61.01
2023-03-22T08:12:04.273Z,60.68
2023-03-22T08:13:04.263Z,60.91
2023-03-22T08:14:04.251Z,60.81
2023-03-22T08:15:04.255Z,60.71
2023-03-22T08:16:04.261Z,61.65
2023-03-22T08:17:04.258Z,62.08
2023-03-22T08:18:04.213Z,63.56
2023-03-22T08:19:04.196Z,63.08
2023-03-22T08:20:09.256Z,65.17
2023-03-22T08:21:04.173Z,67.13
2023-03-22T08:22:04.180Z,66.93
2023-03-22T08:23:04.154Z,66.52
2023-03-22T08:24:04.170Z,66.72
2023-03-22T08:25:04.140Z,66.93
2023-03-22T08:26:04.117Z,67.00
2023-03-22T08:27:04.107Z,66.60
2023-03-22T08:28:04.104Z,66.46
2023-03-22T08:29:04.081Z,66.46
2023-03-22T08:30:04.083Z,65.21
2023-03-22T08:31:09.085Z,66.26
2023-03-22T08:32:04.159Z,65.42
2023-03-22T08:33:04.039Z,64.37
2023-03-22T08:34:04.060Z,64.21
2023-03-22T08:35:04.026Z,62.93
2023-03-22T08:36:04.001Z,61.19
2023-03-22T08:37:03.991Z,61.21
2023-03-22T08:38:03.981Z,62.76
2023-03-22T08:39:03.973Z,63.02
2023-03-22T08:40:04.003Z,63.93
2023-03-22T08:41:03.954Z,63.53
2023-03-22T08:42:08.960Z,63.40
2023-03-22T08:43:03.926Z,62.73
2023-03-22T08:44:03.940Z,61.99
2023-03-22T08:45:03.901Z,60.12
2023-03-22T08:46:03.952Z,59.18
2023-03-22T08:47:03.889Z,59.51
2023-03-22T08:48:03.924Z,58.98
2023-03-22T08:49:03.856Z,59.48
2023-03-22T08:50:03.844Z,59.05
2023-03-22T08:51:03.843Z,58.82
2023-03-22T08:52:03.858Z,58.75
2023-03-22T08:53:08.865Z,59.08
2023-03-22T08:54:03.807Z,58.67
2023-03-22T08:55:03.800Z,57.56
2023-03-22T08:56:03.803Z,58.67
2023-03-22T08:57:03.807Z,57.94
2023-03-22T08:58:03.777Z,57.21
2023-03-22T08:59:03.832Z,56.98
2023-03-22T09:00:03.736Z,56.90
2023-03-22T09:01:03.876Z,57.34
2023-03-22T09:02:03.846Z,57.76
2023-03-22T09:03:03.702Z,58.60
2023-03-22T09:04:10.609Z,58.80
2023-03-22T09:05:03.687Z,59.00
2023-03-22T09:06:03.676Z,59.21
2023-03-22T09:07:03.718Z,59.41
2023-03-22T09:08:06.621Z,59.31
2023-03-22T09:09:03.636Z,59.61
2023-03-22T09:10:03.645Z,58.91
2023-03-22T09:11:03.625Z,58.40
2023-03-22T09:12:03.626Z,59.00
2023-03-22T09:13:03.590Z,59.14
2023-03-22T09:14:03.578Z,59.00
2023-03-22T09:15:08.592Z,58.80
2023-03-22T09:16:03.660Z,58.67
2023-03-22T09:17:03.548Z,56.96
2023-03-22T09:18:03.544Z,56.52
2023-03-22T09:19:03.544Z,56.93
2023-03-22T09:20:12.471Z,56.12
2023-03-22T09:21:03.568Z,56.52
2023-03-22T09:22:03.509Z,56.02
2023-03-22T09:23:03.479Z,56.56
2023-03-22T09:24:03.475Z,56.50
2023-03-22T09:25:03.451Z,55.97
2023-03-22T09:26:08.474Z,54.63
2023-03-22T09:27:03.439Z,54.21
2023-03-22T09:28:03.450Z,53.20
2023-03-22T09:29:03.411Z,54.33
2023-03-22T09:30:03.416Z,54.03
2023-03-22T09:31:03.449Z,54.73
2023-03-22T09:32:03.372Z,54.33
2023-03-22T09:33:03.362Z,54.23
2023-03-22T09:34:03.363Z,54.43
2023-03-22T09:35:03.344Z,54.73
2023-03-22T09:36:03.427Z,54.33
2023-03-22T09:37:08.350Z,54.10
2023-03-22T09:38:03.310Z,54.10
2023-03-22T09:39:03.295Z,54.63
2023-03-22T09:40:03.300Z,54.05
2023-03-22T09:41:03.290Z,54.56
2023-03-22T09:42:03.268Z,54.94
2023-03-22T09:43:03.258Z,54.83
2023-03-22T09:44:03.294Z,54.53
2023-03-22T09:45:03.252Z,54.83
2023-03-22T09:46:03.317Z,54.63
2023-03-22T09:47:03.211Z,53.80
2023-03-22T09:48:08.316Z,54.03
2023-03-22T09:49:03.187Z,54.63
2023-03-22T09:50:03.183Z,55.04
2023-03-22T09:51:03.164Z,54.73
2023-03-22T09:52:03.214Z,54.66
2023-03-22T09:53:03.140Z,54.86
2023-03-22T09:54:03.127Z,55.29
2023-03-22T09:55:03.117Z,54.46
2023-03-22T09:56:03.104Z,54.38
2023-03-22T09:57:03.104Z,54.79
2023-03-22T09:58:03.101Z,55.69
2023-03-22T09:59:08.113Z,54.31
2023-03-22T10:00:03.063Z,55.01
2023-03-22T10:01:03.317Z,55.24
2023-03-22T10:02:03.341Z,55.65
2023-03-22T10:03:03.030Z,56.07
2023-03-22T10:04:03.078Z,56.25
2023-03-22T10:05:03.040Z,56.65
2023-03-22T10:06:03.003Z,56.65
2023-03-22T10:07:02.992Z,56.63
2023-03-22T10:08:02.977Z,56.73
2023-03-22T10:09:02.966Z,56.12
2023-03-22T10:10:07.991Z,56.05
2023-03-22T10:11:02.936Z,56.15
2023-03-22T10:12:02.934Z,56.65
2023-03-22T10:13:02.927Z,56.35
2023-03-22T10:14:02.905Z,56.38
2023-03-22T10:15:02.910Z,57.36
2023-03-22T10:16:02.964Z,57.16
2023-03-22T10:17:02.881Z,55.94
2023-03-22T10:18:02.885Z,56.96
2023-03-22T10:19:02.856Z,56.35
2023-03-22T10:20:02.860Z,55.92
2023-03-22T10:21:07.868Z,56.32
2023-03-22T10:22:02.840Z,56.85
2023-03-22T10:23:02.799Z,56.76
2023-03-22T10:24:02.793Z,55.62
2023-03-22T10:25:02.803Z,55.62
2023-03-22T10:26:02.783Z,56.60
2023-03-22T10:27:02.768Z,55.82
2023-03-22T10:28:02.758Z,55.39
2023-03-22T10:29:03.789Z,55.39
2023-03-22T10:30:02.735Z,55.26
2023-03-22T10:31:05.612Z,55.66
2023-03-22T10:32:07.733Z,54.23
2023-03-22T10:33:02.686Z,54.81
2023-03-22T10:34:02.690Z,54.71
2023-03-22T10:35:02.663Z,54.68
2023-03-22T10:36:02.693Z,54.08
2023-03-22T10:37:02.656Z,53.47
2023-03-22T10:38:02.634Z,52.44
2023-03-22T10:39:02.621Z,52.67
2023-03-22T10:40:02.643Z,53.38
2023-03-22T10:41:02.602Z,53.09
2023-03-22T10:42:02.624Z,53.70
2023-03-22T10:43:07.605Z,53.58
2023-03-22T10:44:02.572Z,53.80
2023-03-22T10:45:02.558Z,54.53
2023-03-22T10:46:02.588Z,54.53
2023-03-22T10:47:02.661Z,53.07
2023-03-22T10:48:02.574Z,52.94
2023-03-22T10:49:02.521Z,51.89
2023-03-22T10:50:02.503Z,51.49
2023-03-22T10:51:02.500Z,50.15
2023-03-22T10:52:02.532Z,50.03
2023-03-22T10:53:02.469Z,48.90
2023-03-22T10:54:07.480Z,49.16
2023-03-22T10:55:04.585Z,48.16
2023-03-22T10:56:02.442Z,47.96
2023-03-22T10:57:02.434Z,48.55
2023-03-22T10:58:02.433Z,47.93
2023-03-22T10:59:02.406Z,47.43
2023-03-22T11:00:02.430Z,47.73
2023-03-22T11:01:02.527Z,47.31
2023-03-22T11:02:02.541Z,47.05
2023-03-22T11:03:02.396Z,48.50
2023-03-22T11:04:02.375Z,48.68
2023-03-22T11:05:07.361Z,48.52
2023-03-22T11:06:02.361Z,49.35
2023-03-22T11:07:02.323Z,50.15
2023-03-22T11:08:02.305Z,50.46
2023-03-22T11:09:02.296Z,50.56
2023-03-22T11:10:02.334Z,48.93
2023-03-22T11:11:02.269Z,49.13
2023-03-22T11:12:02.281Z,49.33
2023-03-22T11:13:02.253Z,49.02
2023-03-22T11:14:02.236Z,49.30
2023-03-22T11:15:02.227Z,48.03
2023-03-22T11:16:07.307Z,46.93
2023-03-22T11:17:02.220Z,47.05
2023-03-22T11:18:02.205Z,49.08
2023-03-22T11:19:02.216Z,49.18
2023-03-22T11:20:02.271Z,49.63
2023-03-22T11:21:02.160Z,50.84
2023-03-22T11:22:02.178Z,49.10
2023-03-22T11:23:02.133Z,49.13
2023-03-22T11:24:02.124Z,49.53
2023-03-22T11:25:02.112Z,50.43
2023-03-22T11:26:02.103Z,50.78
2023-03-22T11:27:07.128Z,50.58
2023-03-22T11:28:02.111Z,49.05
2023-03-22T11:29:02.072Z,48.10
2023-03-22T11:30:02.063Z,47.07
2023-03-22T11:31:02.047Z,47.15
2023-03-22T11:32:02.114Z,47.20
2023-03-22T11:33:02.167Z,45.54
2023-03-22T11:34:02.047Z,45.20
2023-03-22T11:35:02.045Z,43.85
2023-03-22T11:36:02.149Z,43.43
2023-03-22T11:37:02.006Z,43.18
2023-03-22T11:38:07.013Z,43.40
2023-03-22T11:39:01.967Z,43.13
2023-03-22T11:40:01.960Z,44.24
2023-03-22T11:41:01.969Z,43.91
2023-03-22T11:42:01.977Z,43.87
2023-03-22T11:43:01.929Z,41.61
2023-03-22T11:44:01.915Z,42.02
2023-03-22T11:45:01.922Z,42.24
2023-03-22T11:46:01.957Z,41.82
2023-03-22T11:47:01.873Z,42.55
2023-03-22T11:48:01.987Z,42.25
2023-03-22T11:49:06.934Z,41.31
2023-03-22T11:50:01.861Z,41.30
2023-03-22T11:51:01.867Z,41.69
2023-03-22T11:52:04.156Z,41.08
2023-03-22T11:53:01.823Z,42.18
2023-03-22T11:54:01.804Z,41.28
2023-03-22T11:55:01.786Z,41.60
2023-03-22T11:56:01.777Z,41.93
2023-03-22T11:57:01.775Z,42.55
2023-03-22T11:58:01.784Z,42.38
2023-03-22T11:59:01.739Z,43.82
2023-03-22T12:00:01.736Z,44.54
2023-03-22T12:01:01.737Z,44.16
2023-03-22T12:02:06.822Z,45.48
2023-03-22T12:03:01.768Z,45.62
2023-03-22T12:04:01.878Z,45.50
2023-03-22T12:05:01.759Z,45.86
2023-03-22T12:06:01.708Z,44.04
2023-03-22T12:07:01.673Z,43.85
2023-03-22T12:08:01.656Z,44.56
2023-03-22T12:09:01.628Z,44.24
2023-03-22T12:10:01.636Z,43.51
2023-03-22T12:11:01.617Z,43.49
2023-03-22T12:12:01.607Z,43.41
2023-03-22T12:13:01.598Z,44.06
2023-03-22T12:14:01.571Z,43.51
2023-03-22T12:15:06.584Z,43.12
2023-03-22T12:16:01.681Z,43.58
2023-03-22T12:17:01.572Z,43.35
2023-03-22T12:18:01.639Z,44.18
2023-03-22T12:19:01.524Z,44.06
2023-03-22T12:20:01.521Z,43.21
2023-03-22T12:21:01.507Z,42.49
2023-03-22T12:22:01.528Z,41.96
2023-03-22T12:23:01.577Z,42.05
2023-03-22T12:24:01.487Z,41.96
2023-03-22T12:25:01.456Z,41.83
2023-03-22T12:26:01.465Z,41.83
2023-03-22T12:27:01.436Z,42.15
2023-03-22T12:28:06.492Z,42.24
2023-03-22T12:29:01.446Z,41.82
2023-03-22T12:30:01.426Z,41.93
2023-03-22T12:31:01.431Z,43.59
2023-03-22T12:32:01.376Z,43.45
2023-03-22T12:33:01.482Z,41.83
2023-03-22T12:34:01.461Z,42.32
2023-03-22T12:35:17.975Z,41.39
2023-03-22T12:36:02.374Z,40.88
2023-03-22T12:37:01.325Z,40.78
2023-03-22T12:38:01.314Z,40.44
2023-03-22T12:39:06.348Z,40.24
2023-03-22T12:40:01.342Z,40.26
2023-03-22T12:41:01.304Z,41.47
2023-03-22T12:42:01.290Z,39.88
2023-03-22T12:43:01.252Z,39.12
2023-03-22T12:44:01.284Z,39.43
2023-03-22T12:45:05.030Z,39.04
2023-03-22T12:46:01.280Z,39.10
2023-03-22T12:47:01.262Z,38.10
2023-03-22T12:48:01.324Z,37.70
2023-03-22T12:49:01.337Z,37.10
2023-03-22T12:50:01.184Z,36.69
2023-03-22T12:51:01.170Z,37.30
2023-03-22T12:52:06.219Z,36.31